createdAt,value
2022-09-23T00:00:13.144Z,55.71
2022-09-23T00:01:14.911Z,55.63
2022-09-23T00:02:16.902Z,55.82
2022-09-23T00:03:20.270Z,55.66
2022-09-23T00:04:21.816Z,55.60
2022-09-23T00:05:23.311Z,55.69
2022-09-23T00:06:24.879Z,55.79
2022-09-23T00:07:26.358Z,55.71
2022-09-23T00:08:28.024Z,55.86
2022-09-23T00:09:29.454Z,55.69
2022-09-23T00:10:33.599Z,55.65
2022-09-23T00:11:35.058Z,55.55
2022-09-23T00:12:36.515Z,55.84
2022-09-23T00:13:38.235Z,55.63
2022-09-23T00:14:39.713Z,55.88
2022-09-23T00:15:41.188Z,55.97
2022-09-23T00:16:42.747Z,55.78
2022-09-23T00:17:44.503Z,55.81
2022-09-23T00:18:46.082Z,55.90
2022-09-23T00:19:48.323Z,55.94
2022-09-23T00:20:49.785Z,55.81
2022-09-23T00:21:51.237Z,55.79
2022-09-23T00:22:53.371Z,55.86
2022-09-23T00:23:54.866Z,55.92
2022-09-23T00:24:56.331Z,55.93
2022-09-23T00:26:01.206Z,56.02
2022-09-23T00:27:02.738Z,55.81
2022-09-23T00:28:04.246Z,55.86
2022-09-23T00:29:05.667Z,56.00
2022-09-23T00:30:07.502Z,55.75
2022-09-23T00:31:13.525Z,55.80
2022-09-23T00:32:15.196Z,56.04
2022-09-23T00:33:16.647Z,55.84
2022-09-23T00:34:18.071Z,55.85
2022-09-23T00:35:19.763Z,56.02
2022-09-23T00:36:21.183Z,55.97
2022-09-23T00:37:22.706Z,56.08
2022-09-23T00:38:24.131Z,56.01
2022-09-23T00:39:26.390Z,56.09
2022-09-23T00:40:27.874Z,55.91
2022-09-23T00:41:29.495Z,55.96
2022-09-23T00:42:30.974Z,56.05
2022-09-23T00:43:39.262Z,55.70
2022-09-23T00:44:42.038Z,55.88
2022-09-23T00:45:45.275Z,55.97
2022-09-23T00:46:46.818Z,56.24
2022-09-23T00:47:52.383Z,56.12
2022-09-23T00:48:59.290Z,56.00
2022-09-23T00:50:01.754Z,56.04
2022-09-23T00:51:03.292Z,56.09
2022-09-23T00:52:09.276Z,56.29
2022-09-23T00:53:11.637Z,56.14
2022-09-23T00:54:13.093Z,56.30
2022-09-23T00:55:18.481Z,56.31
2022-09-23T00:56:20.215Z,56.24
2022-09-23T00:57:21.775Z,56.42
2022-09-23T00:58:31.191Z,56.26
2022-09-23T00:59:32.806Z,56.51
2022-09-23T01:00:35.556Z,56.54
2022-09-23T01:01:37.573Z,56.41
2022-09-23T01:02:39.457Z,56.51
2022-09-23T01:03:44.663Z,56.40
2022-09-23T01:04:46.140Z,56.66
2022-09-23T01:05:47.606Z,56.72
2022-09-23T01:06:49.240Z,56.68
2022-09-23T01:07:50.863Z,56.79
2022-09-23T01:08:52.336Z,56.56
2022-09-23T01:09:53.854Z,56.99
2022-09-23T01:11:14.336Z,56.76
2022-09-23T01:12:18.587Z,56.68
2022-09-23T01:13:20.239Z,56.98
2022-09-23T01:14:21.812Z,56.76
2022-09-23T01:15:42.123Z,56.59
2022-09-23T01:16:44.487Z,56.64
2022-09-23T01:17:50.691Z,56.62
2022-09-23T01:18:57.520Z,56.61
2022-09-23T01:20:17.871Z,56.72
2022-09-23T01:21:19.403Z,56.66
2022-09-23T01:22:21.838Z,56.74
2022-09-23T01:23:23.418Z,56.69
2022-09-23T01:24:30.922Z,56.64
2022-09-23T01:25:35.131Z,56.74
2022-09-23T01:26:52.388Z,56.59
2022-09-23T01:28:05.604Z,56.78
2022-09-23T01:29:25.641Z,56.83
2022-09-23T01:30:39.333Z,57.00
2022-09-23T01:31:52.948Z,57.11
2022-09-23T01:32:57.322Z,56.85
2022-09-23T01:34:02.195Z,57.06
2022-09-23T01:35:03.955Z,57.10
2022-09-23T01:36:23.880Z,57.07
2022-09-23T01:37:28.667Z,56.97
2022-09-23T01:38:33.056Z,57.05
2022-09-23T01:39:35.301Z,56.88
2022-09-23T01:40:36.982Z,56.92
2022-09-23T01:41:44.474Z,57.10
2022-09-23T01:42:48.069Z,57.05
2022-09-23T01:43:52.711Z,57.13
2022-09-23T01:45:00.344Z,57.13
2022-09-23T01:46:01.809Z,57.13
2022-09-23T01:47:14.181Z,57.18
2022-09-23T01:48:15.759Z,57.36
2022-09-23T01:49:22.183Z,57.16
2022-09-23T01:50:46.580Z,57.06
2022-09-23T01:51:49.468Z,57.30
2022-09-23T01:52:50.959Z,57.21
2022-09-23T01:53:54.702Z,57.53
2022-09-23T01:55:16.132Z,57.27
2022-09-23T01:56:23.258Z,57.33
2022-09-23T01:57:27.564Z,57.56
2022-09-23T01:58:35.246Z,57.41
2022-09-23T01:59:38.209Z,57.33
2022-09-23T02:00:40.822Z,57.15
2022-09-23T02:02:02.632Z,57.39
2022-09-23T02:03:07.794Z,57.53
2022-09-23T02:04:11.555Z,57.18
2022-09-23T02:05:14.858Z,57.36
2022-09-23T02:06:23.369Z,57.22
2022-09-23T02:07:25.857Z,57.19
2022-09-23T02:08:29.502Z,57.31
2022-09-23T02:09:35.845Z,57.11
2022-09-23T02:10:52.831Z,57.05
2022-09-23T02:11:55.028Z,56.90
2022-09-23T02:12:57.783Z,57.01
2022-09-23T02:14:04.242Z,57.00
2022-09-23T02:15:09.363Z,57.23
2022-09-23T02:16:13.261Z,57.26
2022-09-23T02:17:15.894Z,57.33
2022-09-23T02:18:19.734Z,57.13
2022-09-23T02:19:27.125Z,57.43
2022-09-23T02:20:30.592Z,57.45
2022-09-23T02:21:36.063Z,57.41
2022-09-23T02:22:41.212Z,57.35
2022-09-23T02:23:43.363Z,57.30
2022-09-23T02:24:45.162Z,57.31
2022-09-23T02:25:55.507Z,57.31
2022-09-23T02:27:06.023Z,57.60
2022-09-23T02:28:19.003Z,57.31
2022-09-23T02:29:24.754Z,57.58
2022-09-23T02:30:29.982Z,57.44
2022-09-23T02:31:49.976Z,57.30
2022-09-23T02:32:55.622Z,57.44
2022-09-23T02:33:57.039Z,57.59
2022-09-23T02:35:06.130Z,57.30
2022-09-23T02:36:12.332Z,57.60
2022-09-23T02:37:17.097Z,57.68
2022-09-23T02:38:29.603Z,57.52
2022-09-23T02:39:34.698Z,57.39
2022-09-23T02:40:57.476Z,57.64
2022-09-23T02:42:05.986Z,57.57
2022-09-23T02:43:10.248Z,57.80
2022-09-23T02:44:12.739Z,57.85
2022-09-23T02:45:14.478Z,57.75
2022-09-23T02:46:15.991Z,57.69
2022-09-23T02:47:17.874Z,57.67
2022-09-23T02:48:23.227Z,57.47
2022-09-23T02:49:30.831Z,57.52
2022-09-23T02:50:32.530Z,57.89
2022-09-23T02:51:38.182Z,57.69
2022-09-23T02:52:39.655Z,57.93
2022-09-23T02:53:41.230Z,57.98
2022-09-23T02:54:42.726Z,57.88
2022-09-23T02:55:44.184Z,57.83
2022-09-23T02:56:45.699Z,57.97
2022-09-23T02:57:48.249Z,57.60
2022-09-23T02:58:50.279Z,57.89
2022-09-23T02:59:51.890Z,57.61
2022-09-23T03:01:05.142Z,57.63
2022-09-23T03:02:17.412Z,57.55
2022-09-23T03:03:25.030Z,57.55
2022-09-23T03:04:35.695Z,57.83
2022-09-23T03:05:38.059Z,57.87
2022-09-23T03:06:45.759Z,57.83
2022-09-23T03:07:58.718Z,57.78
2022-09-23T03:09:08.623Z,57.94
2022-09-23T03:10:12.556Z,57.91
2022-09-23T03:11:14.051Z,58.07
2022-09-23T03:12:36.277Z,58.03
2022-09-23T03:14:05.093Z,57.73
2022-09-23T03:15:09.196Z,57.79
2022-09-23T03:16:10.641Z,58.01
2022-09-23T03:17:19.939Z,58.13
2022-09-23T03:18:31.657Z,58.10
2022-09-23T03:19:35.134Z,57.81
2022-09-23T03:20:38.290Z,58.12
2022-09-23T03:21:45.163Z,58.15
2022-09-23T03:22:51.548Z,58.13
2022-09-23T03:23:53.026Z,57.85
2022-09-23T03:24:54.547Z,58.16
2022-09-23T03:25:56.111Z,57.94
2022-09-23T03:27:00.178Z,58.23
2022-09-23T03:28:01.779Z,58.22
2022-09-23T03:29:04.203Z,58.29
2022-09-23T03:30:06.136Z,58.13
2022-09-23T03:31:08.328Z,58.27
2022-09-23T03:32:09.836Z,58.09
2022-09-23T03:33:12.527Z,57.92
2022-09-23T03:34:16.418Z,58.04
2022-09-23T03:35:17.983Z,57.86
2022-09-23T03:36:39.662Z,57.85
2022-09-23T03:37:49.934Z,57.89
2022-09-23T03:38:52.800Z,58.08
2022-09-23T03:39:55.211Z,58.24
2022-09-23T03:40:56.672Z,58.28
2022-09-23T03:41:59.031Z,58.17
2022-09-23T03:43:01.489Z,58.10
2022-09-23T03:44:03.134Z,58.43
2022-09-23T03:45:07.294Z,58.17
2022-09-23T03:46:08.803Z,58.17
2022-09-23T03:47:12.395Z,58.36
2022-09-23T03:48:15.699Z,58.47
2022-09-23T03:49:18.178Z,58.67
2022-09-23T03:50:20.863Z,58.53
2022-09-23T03:51:23.752Z,58.63
2022-09-23T03:52:25.581Z,58.48
2022-09-23T03:53:27.089Z,58.51
2022-09-23T03:54:33.401Z,58.58
2022-09-23T03:55:39.318Z,58.85
2022-09-23T03:56:40.815Z,58.87
2022-09-23T03:57:42.429Z,58.84
2022-09-23T03:58:46.446Z,58.83
2022-09-23T03:59:48.971Z,58.54
2022-09-23T04:00:50.599Z,58.60
2022-09-23T04:01:52.261Z,58.67
2022-09-23T04:02:53.810Z,58.54
2022-09-23T04:03:55.318Z,58.48
2022-09-23T04:04:57.379Z,58.61
2022-09-23T04:05:58.939Z,58.42
2022-09-23T04:07:00.469Z,58.40
2022-09-23T04:08:02.014Z,58.48
2022-09-23T04:09:03.549Z,58.58
2022-09-23T04:10:05.547Z,58.90
2022-09-23T04:11:07.038Z,58.72
2022-09-23T04:12:09.149Z,58.69
2022-09-23T04:13:10.754Z,58.96
2022-09-23T04:14:12.277Z,58.89
2022-09-23T04:15:13.753Z,58.73
2022-09-23T04:16:15.505Z,58.72
2022-09-23T04:17:17.035Z,58.90
2022-09-23T04:18:18.899Z,58.66
2022-09-23T04:19:20.401Z,58.76
2022-09-23T04:20:21.833Z,58.95
2022-09-23T04:21:23.343Z,58.95
2022-09-23T04:22:25.264Z,58.71
2022-09-23T04:23:26.882Z,58.60
2022-09-23T04:24:28.457Z,58.61
2022-09-23T04:25:29.892Z,59.11
2022-09-23T04:26:31.663Z,58.95
2022-09-23T04:27:37.418Z,59.16
2022-09-23T04:28:39.328Z,59.04
2022-09-23T04:29:40.826Z,59.06
2022-09-23T04:30:46.174Z,59.28
2022-09-23T04:31:47.798Z,59.26
2022-09-23T04:32:50.003Z,59.40
2022-09-23T04:33:54.796Z,59.16
2022-09-23T04:34:56.260Z,59.41
2022-09-23T04:35:57.799Z,59.09
2022-09-23T04:36:59.306Z,59.26
2022-09-23T04:38:00.726Z,59.17
2022-09-23T04:39:02.272Z,59.25
2022-09-23T04:40:04.036Z,59.16
2022-09-23T04:41:08.663Z,59.09
2022-09-23T04:42:10.160Z,59.05
2022-09-23T04:43:13.551Z,59.10
2022-09-23T04:44:15.224Z,59.09
2022-09-23T04:45:16.730Z,59.19
2022-09-23T04:46:18.257Z,59.46
2022-09-23T04:47:19.802Z,59.21
2022-09-23T04:48:21.240Z,59.16
2022-09-23T04:49:23.580Z,59.50
2022-09-23T04:50:26.108Z,59.17
2022-09-23T04:51:27.783Z,59.49
2022-09-23T04:52:30.043Z,59.83
2022-09-23T04:53:33.991Z,60.21
2022-09-23T04:54:35.573Z,60.07
2022-09-23T04:55:37.018Z,59.75
2022-09-23T04:56:39.418Z,59.73
2022-09-23T04:57:41.371Z,59.88
2022-09-23T04:58:43.294Z,60.06
2022-09-23T04:59:45.281Z,60.19
2022-09-23T05:00:46.967Z,60.28
2022-09-23T05:01:49.242Z,60.22
2022-09-23T05:02:50.715Z,59.88
2022-09-23T05:03:52.996Z,59.88
2022-09-23T05:04:55.045Z,59.93
2022-09-23T05:05:59.881Z,60.20
2022-09-23T05:07:03.529Z,59.84
2022-09-23T05:08:05.161Z,59.80
2022-09-23T05:09:07.345Z,59.77
2022-09-23T05:10:08.891Z,60.06
2022-09-23T05:11:10.387Z,60.09
2022-09-23T05:12:11.989Z,59.92
2022-09-23T05:13:13.554Z,59.75
2022-09-23T05:14:15.092Z,59.91
2022-09-23T05:15:16.608Z,59.76
2022-09-23T05:16:18.339Z,60.01
2022-09-23T05:17:20.949Z,60.06
2022-09-23T05:18:22.475Z,60.07
2022-09-23T05:19:24.172Z,59.87
2022-09-23T05:20:25.762Z,59.99
2022-09-23T05:21:31.309Z,60.30
2022-09-23T05:22:32.803Z,59.96
2022-09-23T05:23:34.304Z,60.16
2022-09-23T05:24:36.183Z,60.25
2022-09-23T05:25:38.510Z,59.96
2022-09-23T05:26:40.048Z,60.09
2022-09-23T05:27:42.263Z,59.82
2022-09-23T05:28:43.781Z,59.76
2022-09-23T05:29:45.247Z,60.05
2022-09-23T05:30:46.834Z,59.96
2022-09-23T05:31:48.369Z,60.11
2022-09-23T05:32:49.831Z,60.11
2022-09-23T05:33:52.057Z,60.22
2022-09-23T05:34:55.121Z,60.18
2022-09-23T05:35:56.575Z,59.84
2022-09-23T05:36:58.368Z,59.99
2022-09-23T05:38:00.300Z,60.02
2022-09-23T05:39:01.895Z,60.01
2022-09-23T05:40:03.506Z,60.34
2022-09-23T05:41:05.978Z,60.00
2022-09-23T05:42:07.465Z,60.06
2022-09-23T05:43:09.186Z,60.13
2022-09-23T05:44:10.822Z,60.21
2022-09-23T05:45:35.776Z,60.22
2022-09-23T05:46:37.853Z,60.27
2022-09-23T05:47:39.793Z,60.23
2022-09-23T05:48:41.667Z,60.20
2022-09-23T05:49:59.162Z,60.48
2022-09-23T05:51:01.657Z,60.73
2022-09-23T05:52:03.143Z,60.37
2022-09-23T05:53:04.611Z,60.40
2022-09-23T05:54:06.456Z,60.82
2022-09-23T05:55:08.201Z,60.28
2022-09-23T05:56:09.639Z,60.51
2022-09-23T05:57:25.644Z,60.75
2022-09-23T05:58:38.636Z,60.76
2022-09-23T05:59:40.099Z,60.63
2022-09-23T06:00:42.301Z,60.54
2022-09-23T06:01:43.807Z,60.81
2022-09-23T06:02:46.861Z,61.16
2022-09-23T06:03:48.584Z,60.98
2022-09-23T06:04:50.027Z,61.18
2022-09-23T06:05:54.854Z,60.89
2022-09-23T06:06:56.294Z,60.75
2022-09-23T06:07:58.389Z,61.01
2022-09-23T06:09:00.160Z,61.41
2022-09-23T06:10:01.842Z,62.18
2022-09-23T06:11:05.831Z,62.80
2022-09-23T06:12:07.459Z,62.24
2022-09-23T06:13:09.123Z,62.05
2022-09-23T06:14:13.904Z,61.89
2022-09-23T06:15:15.446Z,61.71
2022-09-23T06:16:17.001Z,61.61
2022-09-23T06:17:18.496Z,61.37
2022-09-23T06:18:20.016Z,61.44
2022-09-23T06:19:21.555Z,61.61
2022-09-23T06:20:23.059Z,61.38
2022-09-23T06:21:24.561Z,61.63
2022-09-23T06:22:35.757Z,61.55
2022-09-23T06:23:41.438Z,61.52
2022-09-23T06:24:43.403Z,61.47
2022-09-23T06:25:44.872Z,61.38
2022-09-23T06:26:46.563Z,61.68
2022-09-23T06:27:56.886Z,61.42
2022-09-23T06:28:58.378Z,61.64
2022-09-23T06:29:59.876Z,61.47
2022-09-23T06:31:03.203Z,61.51
2022-09-23T06:32:05.153Z,61.76
2022-09-23T06:33:06.649Z,62.03
2022-09-23T06:34:13.122Z,61.66
2022-09-23T06:35:25.575Z,61.86
2022-09-23T06:36:40.178Z,61.66
2022-09-23T06:37:45.150Z,61.92
2022-09-23T06:38:49.278Z,61.76
2022-09-23T06:39:50.742Z,62.14
2022-09-23T06:40:52.617Z,61.94
2022-09-23T06:41:54.305Z,62.06
2022-09-23T06:42:57.810Z,62.02
2022-09-23T06:43:59.328Z,61.75
2022-09-23T06:45:02.111Z,61.71
2022-09-23T06:46:04.395Z,61.92
2022-09-23T06:47:06.045Z,62.05
2022-09-23T06:48:08.324Z,61.93
2022-09-23T06:49:10.621Z,61.88
2022-09-23T06:50:12.669Z,61.89
2022-09-23T06:51:19.771Z,61.70
2022-09-23T06:52:21.232Z,61.74
2022-09-23T06:53:25.769Z,61.90
2022-09-23T06:54:28.963Z,61.66
2022-09-23T06:55:30.487Z,61.71
2022-09-23T06:56:37.814Z,61.67
2022-09-23T06:57:41.498Z,61.40
2022-09-23T06:58:43.136Z,61.60
2022-09-23T06:59:44.946Z,61.66
2022-09-23T07:00:46.375Z,61.85
2022-09-23T07:01:48.346Z,61.75
2022-09-23T07:02:50.101Z,61.91
2022-09-23T07:03:52.115Z,61.74
2022-09-23T07:04:57.416Z,61.65
2022-09-23T07:05:59.131Z,61.69
2022-09-23T07:07:00.618Z,61.97
2022-09-23T07:08:03.052Z,62.02
2022-09-23T07:09:05.754Z,61.57
2022-09-23T07:10:07.335Z,61.72
2022-09-23T07:11:13.380Z,61.63
2022-09-23T07:12:15.023Z,61.54
2022-09-23T07:13:16.554Z,61.57
2022-09-23T07:14:18.315Z,61.50
2022-09-23T07:15:19.765Z,61.53
2022-09-23T07:16:21.364Z,61.81
2022-09-23T07:17:24.424Z,61.77
2022-09-23T07:18:26.120Z,61.66
2022-09-23T07:19:27.635Z,61.64
2022-09-23T07:20:29.731Z,61.68
2022-09-23T07:21:31.160Z,61.82
2022-09-23T07:22:32.663Z,61.44
2022-09-23T07:23:34.198Z,61.65
2022-09-23T07:24:35.654Z,61.75
2022-09-23T07:25:37.123Z,62.07
2022-09-23T07:26:43.493Z,61.95
2022-09-23T07:27:49.593Z,62.23
2022-09-23T07:28:55.419Z,61.78
2022-09-23T07:29:57.271Z,61.61
2022-09-23T07:31:03.213Z,61.42
2022-09-23T07:32:13.115Z,61.32
2022-09-23T07:33:28.157Z,61.27
2022-09-23T07:34:32.797Z,60.49
2022-09-23T07:35:34.238Z,60.44
2022-09-23T07:36:37.419Z,60.28
2022-09-23T07:37:39.728Z,60.27
2022-09-23T07:38:45.225Z,60.40
2022-09-23T07:39:47.174Z,60.31
2022-09-23T07:40:49.181Z,60.37
2022-09-23T07:41:50.718Z,60.49
2022-09-23T07:42:52.185Z,60.45
2022-09-23T07:43:55.350Z,60.17
2022-09-23T07:44:57.071Z,59.71
2022-09-23T07:45:59.378Z,59.27
2022-09-23T07:47:00.947Z,59.50
2022-09-23T07:48:02.491Z,58.73
2022-09-23T07:49:04.421Z,58.87
2022-09-23T07:50:06.354Z,58.82
2022-09-23T07:51:12.764Z,58.99
2022-09-23T07:52:14.316Z,58.92
2022-09-23T07:53:16.019Z,58.88
2022-09-23T07:54:18.270Z,58.14
2022-09-23T07:55:21.077Z,57.17
2022-09-23T07:56:26.086Z,57.25
2022-09-23T07:57:27.573Z,57.24
2022-09-23T07:58:29.025Z,57.04
2022-09-23T07:59:30.504Z,57.49
2022-09-23T08:00:32.759Z,57.28
2022-09-23T08:01:38.069Z,57.28
2022-09-23T08:02:40.232Z,56.68
2022-09-23T08:03:41.707Z,56.53
2022-09-23T08:04:43.213Z,57.19
2022-09-23T08:05:45.946Z,57.11
2022-09-23T08:06:48.438Z,56.46
2022-09-23T08:07:49.955Z,56.39
2022-09-23T08:08:53.425Z,56.24
2022-09-23T08:09:55.550Z,55.98
2022-09-23T08:11:01.052Z,55.74
2022-09-23T08:12:02.542Z,55.97
2022-09-23T08:13:04.039Z,55.73
2022-09-23T08:14:07.865Z,55.38
2022-09-23T08:15:09.450Z,55.43
2022-09-23T08:16:11.023Z,54.81
2022-09-23T08:17:12.780Z,53.60
2022-09-23T08:18:14.243Z,53.72
2022-09-23T08:19:15.806Z,53.85
2022-09-23T08:20:37.234Z,53.68
2022-09-23T08:21:39.541Z,53.12
2022-09-23T08:22:41.038Z,53.15
2022-09-23T08:23:42.528Z,53.65
2022-09-23T08:24:44.035Z,52.19
2022-09-23T08:25:48.134Z,52.27
2022-09-23T08:26:51.389Z,52.25
2022-09-23T08:27:52.901Z,52.26
2022-09-23T08:28:54.650Z,51.55
2022-09-23T08:29:56.132Z,51.30
2022-09-23T08:30:57.678Z,50.91
2022-09-23T08:31:59.498Z,50.35
2022-09-23T08:33:01.019Z,50.30
2022-09-23T08:34:02.724Z,50.62
2022-09-23T08:35:04.302Z,49.84
2022-09-23T08:36:05.986Z,49.92
2022-09-23T08:37:11.167Z,50.30
2022-09-23T08:38:12.678Z,49.67
2022-09-23T08:39:15.443Z,48.89
2022-09-23T08:40:17.040Z,48.52
2022-09-23T08:41:37.167Z,48.43
2022-09-23T08:42:39.305Z,47.93
2022-09-23T08:43:45.416Z,47.96
2022-09-23T08:44:48.263Z,47.78
2022-09-23T08:45:51.136Z,47.44
2022-09-23T08:46:54.688Z,47.05
2022-09-23T08:47:56.454Z,47.28
2022-09-23T08:48:57.920Z,46.80
2022-09-23T08:49:59.432Z,46.63
2022-09-23T08:51:27.190Z,45.79
2022-09-23T08:52:28.673Z,46.03
2022-09-23T08:53:35.038Z,44.36
2022-09-23T08:54:36.507Z,44.04
2022-09-23T08:55:39.571Z,44.46
2022-09-23T08:56:41.039Z,44.09
2022-09-23T08:58:24.359Z,44.45
2022-09-23T08:59:36.847Z,44.39
2022-09-23T09:00:42.076Z,44.29
2022-09-23T09:01:48.226Z,43.58
2022-09-23T09:02:49.937Z,43.46
2022-09-23T09:03:52.497Z,42.92
2022-09-23T09:04:54.537Z,42.40
2022-09-23T09:05:56.827Z,42.96
2022-09-23T09:07:31.814Z,42.93
2022-09-23T09:08:31.275Z,42.29
2022-09-23T09:09:46.270Z,41.40
2022-09-23T09:10:47.851Z,41.85
2022-09-23T09:11:49.616Z,41.36
2022-09-23T09:12:54.074Z,41.52
2022-09-23T09:14:10.903Z,41.38
2022-09-23T09:15:13.093Z,40.67
2022-09-23T09:16:55.504Z,40.41
2022-09-23T09:18:11.269Z,40.97
2022-09-23T09:19:15.458Z,39.76
2022-09-23T09:20:24.187Z,39.75
2022-09-23T09:21:32.460Z,40.14
2022-09-23T09:22:39.839Z,40.21
2022-09-23T09:23:57.358Z,39.87
2022-09-23T09:25:04.154Z,39.33
2022-09-23T09:26:05.811Z,39.28
2022-09-23T09:27:10.936Z,39.45
2022-09-23T09:28:12.375Z,39.45
2022-09-23T09:29:31.262Z,38.94
2022-09-23T09:30:36.291Z,38.86
2022-09-23T09:31:47.749Z,38.63
2022-09-23T09:32:55.232Z,39.40
2022-09-23T09:34:00.872Z,39.94
2022-09-23T09:35:05.713Z,38.87
2022-09-23T09:36:09.492Z,39.20
2022-09-23T09:37:13.714Z,39.40
2022-09-23T09:38:15.266Z,38.87
2022-09-23T09:39:17.247Z,38.90
2022-09-23T09:40:20.366Z,38.79
2022-09-23T09:41:24.593Z,38.63
2022-09-23T09:42:40.262Z,38.58
2022-09-23T09:43:44.173Z,38.33
2022-09-23T09:44:55.394Z,38.47
2022-09-23T09:46:04.183Z,38.70
2022-09-23T09:47:26.936Z,38.28
2022-09-23T09:48:32.451Z,38.47
2022-09-23T09:49:45.813Z,38.89
2022-09-23T09:50:51.881Z,37.70
2022-09-23T09:52:11.542Z,37.41
2022-09-23T09:53:26.158Z,37.95
2022-09-23T09:54:28.592Z,37.87
2022-09-23T09:55:30.183Z,37.58
2022-09-23T09:56:32.183Z,37.67
2022-09-23T09:57:37.166Z,37.44
2022-09-23T09:58:41.622Z,37.63
2022-09-23T09:59:44.085Z,37.15
2022-09-23T10:00:46.060Z,36.99
2022-09-23T10:01:47.604Z,37.34
2022-09-23T10:02:52.468Z,37.00
2022-09-23T10:03:55.690Z,37.13
2022-09-23T10:05:00.970Z,37.01
2022-09-23T10:06:03.495Z,36.89
2022-09-23T10:07:06.492Z,36.86
2022-09-23T10:08:23.272Z,37.51
2022-09-23T10:09:24.735Z,37.63
2022-09-23T10:10:32.745Z,37.60
2022-09-23T10:11:34.958Z,36.97
2022-09-23T10:12:43.356Z,36.81
2022-09-23T10:14:00.764Z,37.58
2022-09-23T10:15:02.217Z,37.62
2022-09-23T10:16:04.012Z,37.16
2022-09-23T10:17:06.089Z,37.02
2022-09-23T10:18:20.998Z,36.63
2022-09-23T10:19:25.827Z,36.97
2022-09-23T10:20:31.745Z,37.36
2022-09-23T10:21:36.607Z,36.86
2022-09-23T10:22:40.409Z,37.16
2022-09-23T10:23:45.564Z,36.99
2022-09-23T10:24:50.841Z,37.11
2022-09-23T10:26:02.535Z,37.02
2022-09-23T10:27:07.712Z,36.43
2022-09-23T10:28:30.719Z,37.41
2022-09-23T10:29:32.967Z,37.34
2022-09-23T10:30:38.447Z,37.06
2022-09-23T10:31:40.076Z,36.98
2022-09-23T10:32:44.917Z,36.55
2022-09-23T10:33:49.671Z,36.05
2022-09-23T10:35:09.423Z,36.35
2022-09-23T10:36:11.061Z,36.99
2022-09-23T10:37:21.515Z,36.32
2022-09-23T10:38:22.960Z,35.98
2022-09-23T10:39:43.136Z,36.06
2022-09-23T10:41:03.492Z,36.05
2022-09-23T10:42:25.458Z,36.35
2022-09-23T10:43:45.433Z,35.39
2022-09-23T10:45:24.491Z,35.91
2022-09-23T10:46:47.573Z,35.97
2022-09-23T10:47:49.108Z,35.37
2022-09-23T10:49:04.676Z,34.34
2022-09-23T10:50:08.180Z,34.67
2022-09-23T10:51:25.959Z,33.96
2022-09-23T10:52:38.026Z,35.04
2022-09-23T10:53:44.202Z,34.79
2022-09-23T10:54:54.470Z,34.38
2022-09-23T10:56:14.883Z,34.35
2022-09-23T10:57:43.399Z,33.93
2022-09-23T10:58:50.394Z,34.37
2022-09-23T10:59:51.903Z,34.20
2022-09-23T11:01:02.583Z,34.76
2022-09-23T11:02:07.119Z,34.83
2022-09-23T11:03:12.207Z,34.48
2022-09-23T11:04:14.082Z,33.68
2022-09-23T11:05:18.868Z,33.39
2022-09-23T11:06:20.288Z,33.56
2022-09-23T11:07:36.954Z,33.95
2022-09-23T11:09:08.151Z,33.90
2022-09-23T11:10:46.722Z,34.10
2022-09-23T11:11:54.839Z,34.70
2022-09-23T11:13:01.485Z,34.08
2022-09-23T11:14:17.012Z,34.33
2022-09-23T11:15:41.380Z,34.60
2022-09-23T11:16:42.822Z,35.02
2022-09-23T11:18:03.095Z,34.99
2022-09-23T11:19:23.186Z,35.23
2022-09-23T11:20:30.656Z,34.78
2022-09-23T11:21:35.254Z,35.00
2022-09-23T11:22:37.950Z,35.13
2022-09-23T11:23:39.536Z,35.22
2022-09-23T11:25:07.177Z,35.38
2022-09-23T11:26:12.323Z,35.62
2022-09-23T11:27:21.572Z,34.72
2022-09-23T11:28:46.061Z,35.05
2022-09-23T11:29:50.526Z,35.50
2022-09-23T11:30:58.126Z,35.83
2022-09-23T11:32:10.103Z,35.82
2022-09-23T11:33:20.995Z,35.81
2022-09-23T11:34:45.357Z,36.29
2022-09-23T11:35:50.725Z,35.88
2022-09-23T11:36:59.823Z,36.08
2022-09-23T11:38:03.218Z,35.97
2022-09-23T11:39:15.599Z,36.34
2022-09-23T11:40:17.793Z,36.69
2022-09-23T11:41:32.975Z,36.49
2022-09-23T11:42:36.542Z,36.47
2022-09-23T11:43:39.308Z,36.22
2022-09-23T11:44:44.536Z,36.45
2022-09-23T11:45:45.978Z,36.27
2022-09-23T11:46:50.117Z,36.21
2022-09-23T11:47:53.559Z,36.52
2022-09-23T11:49:18.435Z,36.53
2022-09-23T11:50:19.945Z,37.04
2022-09-23T11:51:22.344Z,36.98
2022-09-23T11:52:36.753Z,37.17
2022-09-23T11:53:41.014Z,36.63
2022-09-23T11:54:46.644Z,37.15
2022-09-23T11:55:57.513Z,37.19
2022-09-23T11:57:00.496Z,37.08
2022-09-23T11:58:08.341Z,36.89
2022-09-23T11:59:39.115Z,36.78
2022-09-23T12:00:49.160Z,36.74
2022-09-23T12:02:11.976Z,36.71
2022-09-23T12:03:43.154Z,36.46
2022-09-23T12:04:55.574Z,36.91
2022-09-23T12:06:12.508Z,37.25
2022-09-23T12:07:14.924Z,36.74
2022-09-23T12:08:25.492Z,36.81
2022-09-23T12:09:57.793Z,37.19
2022-09-23T12:10:59.574Z,36.89
2022-09-23T12:12:05.270Z,36.91
2022-09-23T12:13:34.054Z,36.98
2022-09-23T12:14:38.590Z,37.21
2022-09-23T12:15:47.734Z,37.68
2022-09-23T12:17:14.355Z,38.14
2022-09-23T12:18:18.439Z,38.58
2022-09-23T12:19:29.892Z,38.16
2022-09-23T12:20:32.140Z,37.99
2022-09-23T12:21:59.375Z,37.88
2022-09-23T12:23:33.492Z,37.93
2022-09-23T12:24:46.744Z,37.96
2022-09-23T12:25:48.158Z,37.98
2022-09-23T12:26:50.575Z,37.82
2022-09-23T12:27:53.031Z,38.07
2022-09-23T12:28:54.897Z,38.15
2022-09-23T12:29:58.100Z,37.96
2022-09-23T12:31:00.185Z,37.69
2022-09-23T12:32:02.797Z,37.73
2022-09-23T12:33:16.279Z,38.09
2022-09-23T12:34:26.261Z,38.22
2022-09-23T12:35:35.604Z,38.30
2022-09-23T12:36:37.100Z,38.31
2022-09-23T12:37:38.637Z,38.39
2022-09-23T12:38:49.225Z,38.46
2022-09-23T12:39:50.702Z,38.17
2022-09-23T12:40:55.826Z,37.94
2022-09-23T12:41:58.474Z,38.32
2022-09-23T12:43:01.185Z,38.36
2022-09-23T12:44:12.431Z,38.09
2022-09-23T12:45:32.752Z,37.84
2022-09-23T12:46:34.381Z,37.81
2022-09-23T12:47:38.909Z,38.11
2022-09-23T12:48:44.170Z,37.76
2022-09-23T12:49:45.635Z,38.04
2022-09-23T12:50:47.556Z,38.81
2022-09-23T12:52:07.558Z,38.94
2022-09-23T12:53:29.295Z,39.27
2022-09-23T12:54:30.854Z,38.65
2022-09-23T12:55:34.901Z,38.26
2022-09-23T12:56:36.602Z,38.25
2022-09-23T12:57:41.546Z,38.42
2022-09-23T12:58:43.034Z,38.42
2022-09-23T12:59:56.845Z,38.53
2022-09-23T13:01:06.032Z,38.28
2022-09-23T13:02:19.245Z,38.33
2022-09-23T13:03:39.433Z,38.15
2022-09-23T13:05:03.545Z,38.41
2022-09-23T13:06:23.575Z,38.63
2022-09-23T13:07:30.867Z,38.83
2022-09-23T13:08:32.363Z,38.41
2022-09-23T13:09:41.134Z,38.59
2022-09-23T13:10:48.345Z,38.65
2022-09-23T13:11:50.353Z,38.62
2022-09-23T13:12:52.541Z,39.04
2022-09-23T13:13:54.575Z,38.85
2022-09-23T13:14:56.197Z,38.57
2022-09-23T13:16:13.610Z,38.48
2022-09-23T13:17:30.215Z,38.75
2022-09-23T13:18:51.487Z,38.81
2022-09-23T13:20:03.694Z,38.53
2022-09-23T13:21:07.129Z,38.80
2022-09-23T13:22:09.279Z,38.82
2022-09-23T13:23:34.343Z,38.69
2022-09-23T13:24:45.891Z,38.79
2022-09-23T13:25:47.364Z,39.12
2022-09-23T13:27:06.858Z,39.26
2022-09-23T13:28:13.511Z,39.60
2022-09-23T13:29:17.020Z,39.62
2022-09-23T13:30:25.152Z,39.70
2022-09-23T13:31:27.604Z,39.53
2022-09-23T13:32:31.685Z,39.46
2022-09-23T13:33:42.585Z,39.20
2022-09-23T13:34:46.604Z,39.16
2022-09-23T13:35:51.131Z,39.00
2022-09-23T13:36:53.659Z,39.05
2022-09-23T13:37:55.262Z,39.12
2022-09-23T13:39:16.061Z,39.16
2022-09-23T13:40:18.794Z,39.50
2022-09-23T13:41:20.725Z,39.51
2022-09-23T13:42:27.105Z,39.32
2022-09-23T13:43:31.608Z,39.30
2022-09-23T13:44:33.216Z,38.97
2022-09-23T13:45:37.799Z,39.16
2022-09-23T13:46:46.702Z,39.54
2022-09-23T13:47:48.435Z,39.05
2022-09-23T13:48:54.635Z,39.21
2022-09-23T13:49:56.376Z,39.09
2022-09-23T13:50:58.109Z,38.94
2022-09-23T13:51:59.726Z,38.87
2022-09-23T13:53:01.559Z,39.05
2022-09-23T13:54:03.738Z,38.98
2022-09-23T13:55:05.523Z,38.81
2022-09-23T13:56:13.876Z,39.05
2022-09-23T13:57:41.480Z,39.31
2022-09-23T13:58:43.420Z,39.31
2022-09-23T13:59:44.847Z,39.63
2022-09-23T14:00:48.032Z,39.94
2022-09-23T14:01:49.794Z,39.84
2022-09-23T14:02:52.967Z,39.12
2022-09-23T14:03:54.438Z,39.50
2022-09-23T14:04:56.389Z,39.44